sensor_id;sensor_type;location;lat;lon;timestamp;P1;durP1;ratioP1;P2;durP2;ratioP2
67776;SDS011;54576;52.020;5.536;2023-05-07T00:01:23;8.50;;;4.18;;
67776;SDS011;54576;52.020;5.536;2023-05-07T00:03:49;7.82;;;4.47;;
67776;SDS011;54576;52.020;5.536;2023-05-07T00:06:15;9.65;;;5.05;;
67776;SDS011;54576;52.020;5.536;2023-05-07T00:08:40;10.98;;;4.95;;
67776;SDS011;54576;52.020;5.536;2023-05-07T00:11:06;8.25;;;5.10;;
67776;SDS011;54576;52.020;5.536;2023-05-07T00:13:31;8.18;;;4.78;;
67776;SDS011;54576;52.020;5.536;2023-05-07T00:16:00;12.55;;;5.18;;
67776;SDS011;54576;52.020;5.536;2023-05-07T00:18:27;5.57;;;4.93;;
67776;SDS011;54576;52.020;5.536;2023-05-07T00:20:52;8.57;;;5.50;;
67776;SDS011;54576;52.020;5.536;2023-05-07T00:23:18;8.80;;;5.43;;
67776;SDS011;54576;52.020;5.536;2023-05-07T00:25:43;8.32;;;5.03;;
67776;SDS011;54576;52.020;5.536;2023-05-07T00:28:09;9.05;;;5.30;;
67776;SDS011;54576;52.020;5.536;2023-05-07T00:30:34;6.95;;;4.78;;
67776;SDS011;54576;52.020;5.536;2023-05-07T00:33:00;6.50;;;4.93;;
67776;SDS011;54576;52.020;5.536;2023-05-07T00:35:26;9.23;;;5.25;;
67776;SDS011;54576;52.020;5.536;2023-05-07T00:37:51;10.13;;;5.82;;
67776;SDS011;54576;52.020;5.536;2023-05-07T00:40:17;10.68;;;5.97;;
67776;SDS011;54576;52.020;5.536;2023-05-07T00:42:42;11.80;;;5.65;;
67776;SDS011;54576;52.020;5.536;2023-05-07T00:45:11;15.55;;;5.95;;
67776;SDS011;54576;52.020;5.536;2023-05-07T00:47:38;9.50;;;5.82;;
67776;SDS011;54576;52.020;5.536;2023-05-07T00:50:05;11.27;;;5.70;;
67776;SDS011;54576;52.020;5.536;2023-05-07T00:52:31;9.38;;;6.57;;
67776;SDS011;54576;52.020;5.536;2023-05-07T00:54:56;10.88;;;5.65;;
67776;SDS011;54576;52.020;5.536;2023-05-07T00:57:23;9.13;;;6.07;;
67776;SDS011;54576;52.020;5.536;2023-05-07T00:59:50;16.90;;;6.30;;
67776;SDS011;54576;52.020;5.536;2023-05-07T01:02:19;10.15;;;6.13;;
67776;SDS011;54576;52.020;5.536;2023-05-07T01:04:45;10.90;;;6.38;;
67776;SDS011;54576;52.020;5.536;2023-05-07T01:07:11;9.80;;;6.63;;
67776;SDS011;54576;52.020;5.536;2023-05-07T01:09:36;10.30;;;6.40;;
67776;SDS011;54576;52.020;5.536;2023-05-07T01:12:02;13.98;;;6.40;;
67776;SDS011;54576;52.020;5.536;2023-05-07T01:14:29;10.98;;;6.10;;
67776;SDS011;54576;52.020;5.536;2023-05-07T01:16:55;8.45;;;5.78;;
67776;SDS011;54576;52.020;5.536;2023-05-07T01:19:21;10.85;;;6.78;;
67776;SDS011;54576;52.020;5.536;2023-05-07T01:21:47;12.93;;;6.95;;
67776;SDS011;54576;52.020;5.536;2023-05-07T01:24:14;11.05;;;6.80;;
67776;SDS011;54576;52.020;5.536;2023-05-07T01:26:41;8.77;;;6.45;;
67776;SDS011;54576;52.020;5.536;2023-05-07T01:29:07;11.40;;;6.63;;
67776;SDS011;54576;52.020;5.536;2023-05-07T01:31:33;14.05;;;7.25;;
67776;SDS011;54576;52.020;5.536;2023-05-07T01:34:01;12.75;;;6.75;;
67776;SDS011;54576;52.020;5.536;2023-05-07T01:36:28;15.32;;;7.43;;
67776;SDS011;54576;52.020;5.536;2023-05-07T01:38:55;9.77;;;7.00;;
67776;SDS011;54576;52.020;5.536;2023-05-07T01:41:22;9.77;;;6.90;;
67776;SDS011;54576;52.020;5.536;2023-05-07T01:43:48;9.45;;;6.50;;
67776;SDS011;54576;52.020;5.536;2023-05-07T01:46:17;8.20;;;6.25;;
67776;SDS011;54576;52.020;5.536;2023-05-07T01:48:43;11.27;;;6.82;;
67776;SDS011;54576;52.020;5.536;2023-05-07T01:51:11;8.60;;;6.20;;
67776;SDS011;54576;52.020;5.536;2023-05-07T01:53:37;9.32;;;6.07;;
67776;SDS011;54576;52.020;5.536;2023-05-07T01:56:03;9.93;;;6.93;;
67776;SDS011;54576;52.020;5.536;2023-05-07T01:58:32;12.20;;;5.88;;
67776;SDS011;54576;52.020;5.536;2023-05-07T02:00:58;8.15;;;5.78;;
67776;SDS011;54576;52.020;5.536;2023-05-07T02:03:24;7.15;;;5.82;;
67776;SDS011;54576;52.020;5.536;2023-05-07T02:05:49;9.65;;;6.05;;
67776;SDS011;54576;52.020;5.536;2023-05-07T02:08:15;15.27;;;6.47;;
67776;SDS011;54576;52.020;5.536;2023-05-07T02:10:40;10.20;;;7.47;;
67776;SDS011;54576;52.020;5.536;2023-05-07T02:13:06;11.48;;;7.55;;
67776;SDS011;54576;52.020;5.536;2023-05-07T02:15:31;9.65;;;7.40;;
67776;SDS011;54576;52.020;5.536;2023-05-07T02:17:58;9.40;;;7.53;;
67776;SDS011;54576;52.020;5.536;2023-05-07T02:20:28;13.50;;;7.28;;
67776;SDS011;54576;52.020;5.536;2023-05-07T02:22:54;15.80;;;8.15;;
67776;SDS011;54576;52.020;5.536;2023-05-07T02:25:20;8.93;;;7.65;;
67776;SDS011;54576;52.020;5.536;2023-05-07T02:27:45;10.52;;;7.20;;
67776;SDS011;54576;52.020;5.536;2023-05-07T02:30:11;9.55;;;7.65;;
67776;SDS011;54576;52.020;5.536;2023-05-07T02:32:37;12.50;;;8.45;;
67776;SDS011;54576;52.020;5.536;2023-05-07T02:35:02;12.57;;;8.55;;
67776;SDS011;54576;52.020;5.536;2023-05-07T02:37:28;12.63;;;8.00;;
67776;SDS011;54576;52.020;5.536;2023-05-07T02:39:54;9.63;;;7.35;;
67776;SDS011;54576;52.020;5.536;2023-05-07T02:42:19;10.38;;;7.82;;
67776;SDS011;54576;52.020;5.536;2023-05-07T02:44:45;13.15;;;8.48;;
67776;SDS011;54576;52.020;5.536;2023-05-07T02:47:14;8.93;;;8.02;;
67776;SDS011;54576;52.020;5.536;2023-05-07T02:49:40;14.35;;;8.40;;
67776;SDS011;54576;52.020;5.536;2023-05-07T02:52:06;13.02;;;8.32;;
67776;SDS011;54576;52.020;5.536;2023-05-07T02:54:32;12.07;;;8.73;;
67776;SDS011;54576;52.020;5.536;2023-05-07T02:56:57;13.02;;;8.00;;
67776;SDS011;54576;52.020;5.536;2023-05-07T02:59:23;11.93;;;7.75;;
67776;SDS011;54576;52.020;5.536;2023-05-07T03:01:49;9.82;;;7.47;;
67776;SDS011;54576;52.020;5.536;2023-05-07T03:04:15;10.30;;;7.60;;
67776;SDS011;54576;52.020;5.536;2023-05-07T03:06:40;16.25;;;8.60;;
67776;SDS011;54576;52.020;5.536;2023-05-07T03:09:06;10.57;;;7.70;;
67776;SDS011;54576;52.020;5.536;2023-05-07T03:11:32;14.52;;;8.55;;
67776;SDS011;54576;52.020;5.536;2023-05-07T03:13:57;12.82;;;8.95;;
67776;SDS011;54576;52.020;5.536;2023-05-07T03:16:23;13.32;;;8.90;;
67776;SDS011;54576;52.020;5.536;2023-05-07T03:18:48;14.52;;;9.52;;
67776;SDS011;54576;52.020;5.536;2023-05-07T03:21:14;10.95;;;8.80;;
67776;SDS011;54576;52.020;5.536;2023-05-07T03:23:39;12.18;;;8.35;;
67776;SDS011;54576;52.020;5.536;2023-05-07T03:26:05;13.38;;;9.30;;
67776;SDS011;54576;52.020;5.536;2023-05-07T03:28:30;12.02;;;8.77;;
67776;SDS011;54576;52.020;5.536;2023-05-07T03:30:56;9.13;;;8.25;;
67776;SDS011;54576;52.020;5.536;2023-05-07T03:33:21;9.13;;;7.32;;
67776;SDS011;54576;52.020;5.536;2023-05-07T03:35:47;19.05;;;8.13;;
67776;SDS011;54576;52.020;5.536;2023-05-07T03:38:13;12.52;;;8.07;;
67776;SDS011;54576;52.020;5.536;2023-05-07T03:40:38;11.50;;;8.77;;
67776;SDS011;54576;52.020;5.536;2023-05-07T03:43:04;11.60;;;8.88;;
67776;SDS011;54576;52.020;5.536;2023-05-07T03:45:30;11.68;;;7.95;;
67776;SDS011;54576;52.020;5.536;2023-05-07T03:47:55;11.40;;;7.78;;
67776;SDS011;54576;52.020;5.536;2023-05-07T03:50:21;16.77;;;8.52;;
67776;SDS011;54576;52.020;5.536;2023-05-07T03:52:46;10.60;;;9.25;;
67776;SDS011;54576;52.020;5.536;2023-05-07T03:55:12;11.82;;;9.25;;
67776;SDS011;54576;52.020;5.536;2023-05-07T03:57:37;11.25;;;9.05;;
67776;SDS011;54576;52.020;5.536;2023-05-07T04:00:03;10.00;;;8.57;;
67776;SDS011;54576;52.020;5.536;2023-05-07T04:02:30;13.38;;;8.68;;
67776;SDS011;54576;52.020;5.536;2023-05-07T04:04:56;11.57;;;10.38;;
67776;SDS011;54576;52.020;5.536;2023-05-07T04:07:22;11.63;;;9.73;;
67776;SDS011;54576;52.020;5.536;2023-05-07T04:09:50;15.57;;;10.35;;
67776;SDS011;54576;52.020;5.536;2023-05-07T04:12:16;12.63;;;9.88;;
67776;SDS011;54576;52.020;5.536;2023-05-07T04:14:41;12.25;;;9.18;;
67776;SDS011;54576;52.020;5.536;2023-05-07T04:17:07;11.68;;;9.02;;
67776;SDS011;54576;52.020;5.536;2023-05-07T04:19:34;13.35;;;9.05;;
67776;SDS011;54576;52.020;5.536;2023-05-07T04:22:00;12.82;;;9.95;;
67776;SDS011;54576;52.020;5.536;2023-05-07T04:24:26;15.52;;;10.02;;
67776;SDS011;54576;52.020;5.536;2023-05-07T04:26:51;11.48;;;8.75;;
67776;SDS011;54576;52.020;5.536;2023-05-07T04:29:17;12.32;;;10.02;;
67776;SDS011;54576;52.020;5.536;2023-05-07T04:31:46;13.27;;;9.38;;
67776;SDS011;54576;52.020;5.536;2023-05-07T04:34:12;13.73;;;10.02;;
67776;SDS011;54576;52.020;5.536;2023-05-07T04:36:38;16.38;;;10.77;;
67776;SDS011;54576;52.020;5.536;2023-05-07T04:39:04;12.20;;;9.82;;
67776;SDS011;54576;52.020;5.536;2023-05-07T04:41:29;11.80;;;9.77;;
67776;SDS011;54576;52.020;5.536;2023-05-07T04:43:57;18.55;;;10.13;;
67776;SDS011;54576;52.020;5.536;2023-05-07T04:46:24;13.65;;;10.50;;
67776;SDS011;54576;52.020;5.536;2023-05-07T04:48:49;14.02;;;10.13;;
67776;SDS011;54576;52.020;5.536;2023-05-07T04:51:15;11.88;;;10.07;;
67776;SDS011;54576;52.020;5.536;2023-05-07T04:53:41;19.25;;;10.85;;
67776;SDS011;54576;52.020;5.536;2023-05-07T04:56:08;13.68;;;11.13;;
67776;SDS011;54576;52.020;5.536;2023-05-07T04:58:33;18.92;;;10.75;;
67776;SDS011;54576;52.020;5.536;2023-05-07T05:00:59;15.93;;;11.05;;
67776;SDS011;54576;52.020;5.536;2023-05-07T05:03:25;20.40;;;10.68;;
67776;SDS011;54576;52.020;5.536;2023-05-07T05:05:51;19.92;;;10.70;;
67776;SDS011;54576;52.020;5.536;2023-05-07T05:08:17;13.63;;;10.68;;
67776;SDS011;54576;52.020;5.536;2023-05-07T05:10:43;13.75;;;10.40;;
67776;SDS011;54576;52.020;5.536;2023-05-07T05:13:09;14.13;;;10.02;;
67776;SDS011;54576;52.020;5.536;2023-05-07T05:15:37;12.95;;;9.85;;
67776;SDS011;54576;52.020;5.536;2023-05-07T05:18:03;14.45;;;10.25;;
67776;SDS011;54576;52.020;5.536;2023-05-07T05:20:28;15.60;;;11.50;;
67776;SDS011;54576;52.020;5.536;2023-05-07T05:22:54;15.40;;;10.95;;
67776;SDS011;54576;52.020;5.536;2023-05-07T05:25:20;14.82;;;10.55;;
67776;SDS011;54576;52.020;5.536;2023-05-07T05:27:45;16.55;;;11.70;;
67776;SDS011;54576;52.020;5.536;2023-05-07T05:30:11;14.25;;;10.20;;
67776;SDS011;54576;52.020;5.536;2023-05-07T05:32:37;12.13;;;9.85;;
67776;SDS011;54576;52.020;5.536;2023-05-07T05:35:03;15.93;;;10.32;;
67776;SDS011;54576;52.020;5.536;2023-05-07T05:37:29;17.23;;;10.57;;
67776;SDS011;54576;52.020;5.536;2023-05-07T05:39:56;15.48;;;10.75;;
67776;SDS011;54576;52.020;5.536;2023-05-07T05:42:21;12.90;;;10.48;;
67776;SDS011;54576;52.020;5.536;2023-05-07T05:44:47;17.63;;;10.55;;
67776;SDS011;54576;52.020;5.536;2023-05-07T05:47:13;13.80;;;10.80;;
67776;SDS011;54576;52.020;5.536;2023-05-07T05:49:39;15.85;;;10.90;;
67776;SDS011;54576;52.020;5.536;2023-05-07T05:52:04;15.68;;;10.55;;
67776;SDS011;54576;52.020;5.536;2023-05-07T05:54:30;18.83;;;10.95;;
67776;SDS011;54576;52.020;5.536;2023-05-07T05:56:56;22.13;;;10.95;;
67776;SDS011;54576;52.020;5.536;2023-05-07T05:59:22;16.17;;;10.40;;
67776;SDS011;54576;52.020;5.536;2023-05-07T06:01:47;12.65;;;10.55;;
67776;SDS011;54576;52.020;5.536;2023-05-07T06:04:13;17.20;;;10.90;;
67776;SDS011;54576;52.020;5.536;2023-05-07T06:06:38;16.45;;;11.77;;
67776;SDS011;54576;52.020;5.536;2023-05-07T06:09:04;15.23;;;12.00;;
67776;SDS011;54576;52.020;5.536;2023-05-07T06:11:31;19.67;;;11.25;;
67776;SDS011;54576;52.020;5.536;2023-05-07T06:13:56;15.63;;;10.95;;
67776;SDS011;54576;52.020;5.536;2023-05-07T06:16:22;15.85;;;10.50;;
67776;SDS011;54576;52.020;5.536;2023-05-07T06:18:49;21.70;;;12.15;;
67776;SDS011;54576;52.020;5.536;2023-05-07T06:21:14;15.68;;;11.63;;
67776;SDS011;54576;52.020;5.536;2023-05-07T06:23:40;13.70;;;11.45;;
67776;SDS011;54576;52.020;5.536;2023-05-07T06:26:06;14.13;;;10.52;;
67776;SDS011;54576;52.020;5.536;2023-05-07T06:28:31;17.20;;;11.82;;
67776;SDS011;54576;52.020;5.536;2023-05-07T06:33:38;19.63;;;13.07;;
67776;SDS011;54576;52.020;5.536;2023-05-07T06:36:05;19.10;;;13.32;;
67776;SDS011;54576;52.020;5.536;2023-05-07T06:38:31;19.48;;;11.90;;
67776;SDS011;54576;52.020;5.536;2023-05-07T06:40:56;14.73;;;11.70;;
67776;SDS011;54576;52.020;5.536;2023-05-07T06:43:22;22.15;;;12.32;;
67776;SDS011;54576;52.020;5.536;2023-05-07T06:45:48;19.02;;;12.65;;
67776;SDS011;54576;52.020;5.536;2023-05-07T06:48:13;15.05;;;12.15;;
67776;SDS011;54576;52.020;5.536;2023-05-07T06:50:39;15.57;;;12.02;;
67776;SDS011;54576;52.020;5.536;2023-05-07T06:53:04;12.77;;;10.82;;
67776;SDS011;54576;52.020;5.536;2023-05-07T06:55:30;16.70;;;12.60;;
67776;SDS011;54576;52.020;5.536;2023-05-07T06:57:56;15.82;;;11.38;;
67776;SDS011;54576;52.020;5.536;2023-05-07T07:02:54;12.80;;;9.70;;
67776;SDS011;54576;52.020;5.536;2023-05-07T07:05:20;17.30;;;12.40;;
67776;SDS011;54576;52.020;5.536;2023-05-07T07:07:46;14.65;;;11.63;;
67776;SDS011;54576;52.020;5.536;2023-05-07T07:10:18;15.35;;;11.70;;
67776;SDS011;54576;52.020;5.536;2023-05-07T07:12:44;15.65;;;11.70;;
67776;SDS011;54576;52.020;5.536;2023-05-07T07:15:10;17.45;;;10.98;;
67776;SDS011;54576;52.020;5.536;2023-05-07T07:17:36;15.05;;;10.50;;
67776;SDS011;54576;52.020;5.536;2023-05-07T07:20:02;15.75;;;10.73;;
67776;SDS011;54576;52.020;5.536;2023-05-07T07:22:28;14.55;;;11.18;;
67776;SDS011;54576;52.020;5.536;2023-05-07T07:24:54;14.35;;;11.75;;
67776;SDS011;54576;52.020;5.536;2023-05-07T07:27:19;16.92;;;10.90;;
67776;SDS011;54576;52.020;5.536;2023-05-07T07:29:45;15.00;;;10.73;;
67776;SDS011;54576;52.020;5.536;2023-05-07T07:32:10;13.73;;;11.52;;
67776;SDS011;54576;52.020;5.536;2023-05-07T07:34:36;16.70;;;11.38;;
67776;SDS011;54576;52.020;5.536;2023-05-07T07:37:02;18.92;;;12.25;;
67776;SDS011;54576;52.020;5.536;2023-05-07T07:39:30;15.23;;;11.73;;
67776;SDS011;54576;52.020;5.536;2023-05-07T07:41:57;18.30;;;11.25;;
67776;SDS011;54576;52.020;5.536;2023-05-07T07:44:22;12.98;;;11.20;;
67776;SDS011;54576;52.020;5.536;2023-05-07T07:46:48;16.17;;;10.60;;
67776;SDS011;54576;52.020;5.536;2023-05-07T07:49:14;13.50;;;11.90;;
67776;SDS011;54576;52.020;5.536;2023-05-07T07:51:39;15.77;;;11.13;;
67776;SDS011;54576;52.020;5.536;2023-05-07T07:54:05;18.40;;;9.70;;
67776;SDS011;54576;52.020;5.536;2023-05-07T07:56:32;13.70;;;10.00;;
67776;SDS011;54576;52.020;5.536;2023-05-07T07:58:58;23.20;;;12.23;;
67776;SDS011;54576;52.020;5.536;2023-05-07T08:01:24;14.85;;;10.68;;
67776;SDS011;54576;52.020;5.536;2023-05-07T08:03:50;18.98;;;10.60;;
67776;SDS011;54576;52.020;5.536;2023-05-07T08:06:15;19.67;;;11.52;;
67776;SDS011;54576;52.020;5.536;2023-05-07T08:08:41;18.67;;;12.82;;
67776;SDS011;54576;52.020;5.536;2023-05-07T08:11:06;17.90;;;11.20;;
67776;SDS011;54576;52.020;5.536;2023-05-07T08:13:32;16.48;;;11.68;;
67776;SDS011;54576;52.020;5.536;2023-05-07T08:15:58;14.32;;;11.38;;
67776;SDS011;54576;52.020;5.536;2023-05-07T08:18:24;16.65;;;11.20;;
67776;SDS011;54576;52.020;5.536;2023-05-07T08:20:50;20.63;;;11.45;;
67776;SDS011;54576;52.020;5.536;2023-05-07T08:23:16;13.95;;;11.02;;
67776;SDS011;54576;52.020;5.536;2023-05-07T08:25:41;14.95;;;11.43;;
67776;SDS011;54576;52.020;5.536;2023-05-07T08:28:07;19.00;;;11.55;;
67776;SDS011;54576;52.020;5.536;2023-05-07T08:30:33;17.75;;;10.90;;
67776;SDS011;54576;52.020;5.536;2023-05-07T08:32:59;15.90;;;11.13;;
67776;SDS011;54576;52.020;5.536;2023-05-07T08:35:25;19.33;;;11.98;;
67776;SDS011;54576;52.020;5.536;2023-05-07T08:37:52;16.65;;;11.77;;
67776;SDS011;54576;52.020;5.536;2023-05-07T08:40:17;14.20;;;11.52;;
67776;SDS011;54576;52.020;5.536;2023-05-07T08:42:43;18.63;;;11.23;;
67776;SDS011;54576;52.020;5.536;2023-05-07T08:45:09;15.75;;;11.18;;
67776;SDS011;54576;52.020;5.536;2023-05-07T08:47:40;17.45;;;11.20;;
67776;SDS011;54576;52.020;5.536;2023-05-07T08:50:11;17.77;;;11.88;;
67776;SDS011;54576;52.020;5.536;2023-05-07T08:52:38;20.48;;;10.95;;
67776;SDS011;54576;52.020;5.536;2023-05-07T08:55:04;15.80;;;11.40;;
67776;SDS011;54576;52.020;5.536;2023-05-07T08:57:31;16.33;;;11.40;;
67776;SDS011;54576;52.020;5.536;2023-05-07T08:59:57;12.10;;;10.80;;
67776;SDS011;54576;52.020;5.536;2023-05-07T09:02:22;16.75;;;12.07;;
67776;SDS011;54576;52.020;5.536;2023-05-07T09:04:48;19.92;;;11.70;;
67776;SDS011;54576;52.020;5.536;2023-05-07T09:07:14;13.60;;;11.52;;
67776;SDS011;54576;52.020;5.536;2023-05-07T09:09:39;14.23;;;10.85;;
67776;SDS011;54576;52.020;5.536;2023-05-07T09:12:05;15.50;;;11.55;;
67776;SDS011;54576;52.020;5.536;2023-05-07T09:14:31;11.95;;;10.40;;
67776;SDS011;54576;52.020;5.536;2023-05-07T09:16:56;15.55;;;10.75;;
67776;SDS011;54576;52.020;5.536;2023-05-07T09:19:25;16.33;;;11.45;;
67776;SDS011;54576;52.020;5.536;2023-05-07T09:21:58;12.45;;;10.07;;
67776;SDS011;54576;52.020;5.536;2023-05-07T09:24:27;18.52;;;10.80;;
67776;SDS011;54576;52.020;5.536;2023-05-07T09:26:57;15.37;;;10.80;;
67776;SDS011;54576;52.020;5.536;2023-05-07T09:29:23;15.05;;;10.93;;
67776;SDS011;54576;52.020;5.536;2023-05-07T09:31:53;17.33;;;11.45;;
67776;SDS011;54576;52.020;5.536;2023-05-07T09:34:19;15.65;;;10.50;;
67776;SDS011;54576;52.020;5.536;2023-05-07T09:36:45;13.07;;;9.52;;
67776;SDS011;54576;52.020;5.536;2023-05-07T09:39:11;10.68;;;9.20;;
67776;SDS011;54576;52.020;5.536;2023-05-07T09:41:44;13.95;;;10.50;;
67776;SDS011;54576;52.020;5.536;2023-05-07T09:44:10;17.95;;;11.80;;
67776;SDS011;54576;52.020;5.536;2023-05-07T09:46:36;23.02;;;10.88;;
67776;SDS011;54576;52.020;5.536;2023-05-07T09:49:04;16.20;;;10.75;;
67776;SDS011;54576;52.020;5.536;2023-05-07T09:51:38;15.38;;;9.70;;
67776;SDS011;54576;52.020;5.536;2023-05-07T09:54:08;14.18;;;10.32;;
67776;SDS011;54576;52.020;5.536;2023-05-07T09:56:33;17.33;;;10.75;;
67776;SDS011;54576;52.020;5.536;2023-05-07T09:59:00;15.98;;;10.23;;
67776;SDS011;54576;52.020;5.536;2023-05-07T10:01:26;18.80;;;10.70;;
67776;SDS011;54576;52.020;5.536;2023-05-07T10:03:52;14.90;;;10.02;;
67776;SDS011;54576;52.020;5.536;2023-05-07T10:06:23;19.02;;;9.93;;
67776;SDS011;54576;52.020;5.536;2023-05-07T10:08:51;19.60;;;9.85;;
67776;SDS011;54576;52.020;5.536;2023-05-07T10:11:17;19.20;;;9.85;;
67776;SDS011;54576;52.020;5.536;2023-05-07T10:13:43;20.40;;;9.60;;
67776;SDS011;54576;52.020;5.536;2023-05-07T10:16:09;15.73;;;9.27;;
67776;SDS011;54576;52.020;5.536;2023-05-07T10:18:35;14.15;;;9.15;;
67776;SDS011;54576;52.020;5.536;2023-05-07T10:23:31;16.02;;;9.77;;
67776;SDS011;54576;52.020;5.536;2023-05-07T10:25:58;22.48;;;8.18;;
67776;SDS011;54576;52.020;5.536;2023-05-07T10:28:28;18.40;;;9.23;;
67776;SDS011;54576;52.020;5.536;2023-05-07T10:30:58;15.30;;;8.32;;
67776;SDS011;54576;52.020;5.536;2023-05-07T10:33:49;12.05;;;7.55;;
67776;SDS011;54576;52.020;5.536;2023-05-07T10:36:17;13.35;;;6.72;;
67776;SDS011;54576;52.020;5.536;2023-05-07T10:38:44;15.13;;;7.55;;
67776;SDS011;54576;52.020;5.536;2023-05-07T10:41:11;11.50;;;6.22;;
67776;SDS011;54576;52.020;5.536;2023-05-07T10:43:40;15.55;;;7.65;;
67776;SDS011;54576;52.020;5.536;2023-05-07T10:46:17;11.30;;;6.68;;
67776;SDS011;54576;52.020;5.536;2023-05-07T10:51:30;11.27;;;6.40;;
67776;SDS011;54576;52.020;5.536;2023-05-07T10:56:35;17.83;;;6.32;;
67776;SDS011;54576;52.020;5.536;2023-05-07T11:01:59;15.10;;;7.07;;
67776;SDS011;54576;52.020;5.536;2023-05-07T11:04:31;9.27;;;6.20;;
67776;SDS011;54576;52.020;5.536;2023-05-07T11:15:15;10.52;;;5.05;;
67776;SDS011;54576;52.020;5.536;2023-05-07T11:17:54;7.05;;;4.97;;
67776;SDS011;54576;52.020;5.536;2023-05-07T11:20:43;6.45;;;4.72;;
67776;SDS011;54576;52.020;5.536;2023-05-07T11:26:10;9.60;;;5.32;;
67776;SDS011;54576;52.020;5.536;2023-05-07T11:28:40;9.77;;;6.30;;
67776;SDS011;54576;52.020;5.536;2023-05-07T11:31:07;8.38;;;5.78;;
67776;SDS011;54576;52.020;5.536;2023-05-07T11:33:33;11.70;;;6.22;;
67776;SDS011;54576;52.020;5.536;2023-05-07T11:36:05;11.48;;;5.65;;
67776;SDS011;54576;52.020;5.536;2023-05-07T11:38:36;9.00;;;5.55;;
67776;SDS011;54576;52.020;5.536;2023-05-07T11:41:02;7.55;;;5.05;;
67776;SDS011;54576;52.020;5.536;2023-05-07T11:43:30;8.75;;;5.13;;
67776;SDS011;54576;52.020;5.536;2023-05-07T11:46:04;11.93;;;6.03;;
67776;SDS011;54576;52.020;5.536;2023-05-07T11:48:32;11.23;;;6.10;;
67776;SDS011;54576;52.020;5.536;2023-05-07T11:53:26;8.93;;;5.10;;
67776;SDS011;54576;52.020;5.536;2023-05-07T11:55:53;8.18;;;5.32;;
67776;SDS011;54576;52.020;5.536;2023-05-07T11:58:21;8.30;;;4.10;;
67776;SDS011;54576;52.020;5.536;2023-05-07T12:00:48;8.20;;;4.78;;
67776;SDS011;54576;52.020;5.536;2023-05-07T12:03:15;5.70;;;4.53;;
67776;SDS011;54576;52.020;5.536;2023-05-07T12:05:40;13.93;;;4.90;;
67776;SDS011;54576;52.020;5.536;2023-05-07T12:08:06;6.40;;;4.70;;
67776;SDS011;54576;52.020;5.536;2023-05-07T12:10:32;7.35;;;4.90;;
67776;SDS011;54576;52.020;5.536;2023-05-07T12:12:58;9.18;;;5.07;;
67776;SDS011;54576;52.020;5.536;2023-05-07T12:15:23;10.82;;;5.50;;
67776;SDS011;54576;52.020;5.536;2023-05-07T12:17:49;14.85;;;5.93;;
67776;SDS011;54576;52.020;5.536;2023-05-07T12:20:15;10.38;;;5.13;;
67776;SDS011;54576;52.020;5.536;2023-05-07T12:22:41;8.07;;;5.05;;
67776;SDS011;54576;52.020;5.536;2023-05-07T12:25:08;6.63;;;5.15;;
67776;SDS011;54576;52.020;5.536;2023-05-07T12:27:36;6.60;;;4.43;;
67776;SDS011;54576;52.020;5.536;2023-05-07T12:30:02;10.20;;;5.53;;
67776;SDS011;54576;52.020;5.536;2023-05-07T12:32:28;9.63;;;5.78;;
67776;SDS011;54576;52.020;5.536;2023-05-07T12:34:54;11.32;;;5.65;;
67776;SDS011;54576;52.020;5.536;2023-05-07T12:37:23;8.65;;;5.35;;
67776;SDS011;54576;52.020;5.536;2023-05-07T12:40:03;8.65;;;6.28;;
67776;SDS011;54576;52.020;5.536;2023-05-07T12:42:36;10.52;;;6.68;;
67776;SDS011;54576;52.020;5.536;2023-05-07T12:45:09;12.32;;;6.43;;
67776;SDS011;54576;52.020;5.536;2023-05-07T12:47:43;12.27;;;6.28;;
67776;SDS011;54576;52.020;5.536;2023-05-07T12:50:09;7.28;;;5.97;;
67776;SDS011;54576;52.020;5.536;2023-05-07T12:52:36;9.93;;;5.68;;
67776;SDS011;54576;52.020;5.536;2023-05-07T12:55:05;11.10;;;5.72;;
67776;SDS011;54576;52.020;5.536;2023-05-07T12:57:39;7.40;;;4.90;;
67776;SDS011;54576;52.020;5.536;2023-05-07T13:00:05;6.03;;;3.38;;
67776;SDS011;54576;52.020;5.536;2023-05-07T13:02:37;5.75;;;3.20;;
67776;SDS011;54576;52.020;5.536;2023-05-07T13:05:04;6.78;;;3.78;;
67776;SDS011;54576;52.020;5.536;2023-05-07T13:07:30;7.60;;;3.35;;
67776;SDS011;54576;52.020;5.536;2023-05-07T13:09:55;10.27;;;3.38;;
67776;SDS011;54576;52.020;5.536;2023-05-07T13:12:21;9.90;;;3.03;;
67776;SDS011;54576;52.020;5.536;2023-05-07T13:14:46;6.40;;;2.78;;
67776;SDS011;54576;52.020;5.536;2023-05-07T13:17:12;5.88;;;2.85;;
67776;SDS011;54576;52.020;5.536;2023-05-07T13:19:38;7.25;;;2.60;;
67776;SDS011;54576;52.020;5.536;2023-05-07T13:22:03;6.43;;;2.97;;
67776;SDS011;54576;52.020;5.536;2023-05-07T13:24:29;4.78;;;2.40;;
67776;SDS011;54576;52.020;5.536;2023-05-07T13:26:54;8.70;;;2.95;;
67776;SDS011;54576;52.020;5.536;2023-05-07T13:29:20;6.93;;;2.38;;
67776;SDS011;54576;52.020;5.536;2023-05-07T13:31:53;4.72;;;2.67;;
67776;SDS011;54576;52.020;5.536;2023-05-07T13:34:19;5.80;;;2.70;;
67776;SDS011;54576;52.020;5.536;2023-05-07T13:36:45;5.20;;;3.20;;
67776;SDS011;54576;52.020;5.536;2023-05-07T13:39:10;15.95;;;10.05;;
67776;SDS011;54576;52.020;5.536;2023-05-07T13:41:36;11.30;;;10.13;;
67776;SDS011;54576;52.020;5.536;2023-05-07T13:44:01;19.88;;;12.18;;
67776;SDS011;54576;52.020;5.536;2023-05-07T13:46:27;12.02;;;10.75;;
67776;SDS011;54576;52.020;5.536;2023-05-07T13:48:54;20.85;;;12.23;;
67776;SDS011;54576;52.020;5.536;2023-05-07T13:51:20;19.08;;;12.27;;
67776;SDS011;54576;52.020;5.536;2023-05-07T13:53:46;14.95;;;10.23;;
67776;SDS011;54576;52.020;5.536;2023-05-07T13:56:12;17.92;;;10.98;;
67776;SDS011;54576;52.020;5.536;2023-05-07T13:58:37;16.08;;;11.93;;
67776;SDS011;54576;52.020;5.536;2023-05-07T14:01:03;19.52;;;11.20;;
67776;SDS011;54576;52.020;5.536;2023-05-07T14:03:28;19.75;;;13.23;;
67776;SDS011;54576;52.020;5.536;2023-05-07T14:05:56;23.25;;;11.07;;
67776;SDS011;54576;52.020;5.536;2023-05-07T14:08:22;20.60;;;11.95;;
67776;SDS011;54576;52.020;5.536;2023-05-07T14:10:48;16.50;;;11.07;;
67776;SDS011;54576;52.020;5.536;2023-05-07T14:13:13;14.93;;;10.90;;
67776;SDS011;54576;52.020;5.536;2023-05-07T14:15:39;13.57;;;10.13;;
67776;SDS011;54576;52.020;5.536;2023-05-07T14:18:05;11.75;;;9.07;;
67776;SDS011;54576;52.020;5.536;2023-05-07T14:20:31;9.70;;;5.13;;
67776;SDS011;54576;52.020;5.536;2023-05-07T14:22:57;9.27;;;4.95;;
67776;SDS011;54576;52.020;5.536;2023-05-07T14:25:22;12.70;;;8.68;;
67776;SDS011;54576;52.020;5.536;2023-05-07T14:27:48;9.63;;;7.57;;
67776;SDS011;54576;52.020;5.536;2023-05-07T14:30:13;13.07;;;9.25;;
67776;SDS011;54576;52.020;5.536;2023-05-07T14:32:39;13.35;;;9.43;;
67776;SDS011;54576;52.020;5.536;2023-05-07T14:35:05;10.10;;;6.88;;
67776;SDS011;54576;52.020;5.536;2023-05-07T14:37:30;8.38;;;5.15;;
67776;SDS011;54576;52.020;5.536;2023-05-07T14:39:56;13.65;;;9.80;;
67776;SDS011;54576;52.020;5.536;2023-05-07T14:42:22;16.00;;;9.88;;
67776;SDS011;54576;52.020;5.536;2023-05-07T14:44:47;15.00;;;9.65;;
67776;SDS011;54576;52.020;5.536;2023-05-07T14:47:17;14.30;;;10.80;;
67776;SDS011;54576;52.020;5.536;2023-05-07T14:49:43;17.23;;;10.30;;
67776;SDS011;54576;52.020;5.536;2023-05-07T14:52:08;16.80;;;10.52;;
67776;SDS011;54576;52.020;5.536;2023-05-07T14:54:35;14.88;;;11.13;;
67776;SDS011;54576;52.020;5.536;2023-05-07T14:57:01;14.18;;;10.77;;